sensor_id;sensor_type;location;lat;lon;timestamp;pressure;altitude;pressure_sealevel;temperature;humidity
44734;BME280;30462;52.446;-1.930;2023-01-15T00:00:18;98321.34375;;;;
44734;BME280;30462;52.446;-1.930;2023-01-15T00:01:22;98323.66406;;;;
44734;BME280;30462;52.446;-1.930;2023-01-15T00:02:18;98320.79297;;;;
44734;BME280;30462;52.446;-1.930;2023-01-15T00:03:17;98323.92188;;;;
44734;BME280;30462;52.446;-1.930;2023-01-15T00:04:18;98323.32031;;;;
44734;BME280;30462;52.446;-1.930;2023-01-15T00:05:18;98325.69922;;;;
44734;BME280;30462;52.446;-1.930;2023-01-15T00:06:18;98322.73438;;;;
44734;BME280;30462;52.446;-1.930;2023-01-15T00:07:18;98321.38672;;;;
44734;BME280;30462;52.446;-1.930;2023-01-15T00:08:18;98325.38672;;;;
44734;BME280;30462;52.446;-1.930;2023-01-15T00:09:18;98326.01953;;;;
44734;BME280;30462;52.446;-1.930;2023-01-15T00:10:18;98324.12891;;;;
44734;BME280;30462;52.446;-1.930;2023-01-15T00:11:18;98326.89453;;;;
44734;BME280;30462;52.446;-1.930;2023-01-15T00:12:18;98325.97266;;;;
44734;BME280;30462;52.446;-1.930;2023-01-15T00:13:18;98320.62109;;;;
44734;BME280;30462;52.446;-1.930;2023-01-15T00:14:18;98326.50781;;;;
44734;BME280;30462;52.446;-1.930;2023-01-15T00:15:18;98322.56641;;;;
44734;BME280;30462;52.446;-1.930;2023-01-15T00:16:18;98327.59375;;;;
44734;BME280;30462;52.446;-1.930;2023-01-15T00:17:18;98324.85156;;;;
44734;BME280;30462;52.446;-1.930;2023-01-15T00:18:17;98317.875;;;;
44734;BME280;30462;52.446;-1.930;2023-01-15T00:19:18;98315.01172;;;;
44734;BME280;30462;52.446;-1.930;2023-01-15T00:20:18;98310.96875;;;;
44734;BME280;30462;52.446;-1.930;2023-01-15T00:21:18;98316.57422;;;;
44734;BME280;30462;52.446;-1.930;2023-01-15T00:22:18;98311.33984;;;;
44734;BME280;30462;52.446;-1.930;2023-01-15T00:23:18;98314.32813;;;;
44734;BME280;30462;52.446;-1.930;2023-01-15T00:24:18;98315.39844;;;;
44734;BME280;30462;52.446;-1.930;2023-01-15T00:25:17;98306.37109;;;;
44734;BME280;30462;52.446;-1.930;2023-01-15T00:26:19;98311.07813;;;;
44734;BME280;30462;52.446;-1.930;2023-01-15T00:27:18;98311.70703;;;;
44734;BME280;30462;52.446;-1.930;2023-01-15T00:28:18;98311.98047;;;;
44734;BME280;30462;52.446;-1.930;2023-01-15T00:29:18;98310.72656;;;;
44734;BME280;30462;52.446;-1.930;2023-01-15T00:30:18;98301.71875;;;;
44734;BME280;30462;52.446;-1.930;2023-01-15T00:31:18;98303.76953;;;;
44734;BME280;30462;52.446;-1.930;2023-01-15T00:32:18;98302.07813;;;;
44734;BME280;30462;52.446;-1.930;2023-01-15T00:33:18;98299.51172;;;;
44734;BME280;30462;52.446;-1.930;2023-01-15T00:34:18;98298.76172;;;;
44734;BME280;30462;52.446;-1.930;2023-01-15T00:35:19;98297.67188;;;;
44734;BME280;30462;52.446;-1.930;2023-01-15T00:36:18;98286.92578;;;;
44734;BME280;30462;52.446;-1.930;2023-01-15T00:37:17;98299.07813;;;;
44734;BME280;30462;52.446;-1.930;2023-01-15T00:38:18;98293.36328;;;;
44734;BME280;30462;52.446;-1.930;2023-01-15T00:39:18;98289.77734;;;;
44734;BME280;30462;52.446;-1.930;2023-01-15T00:40:20;98291.35938;;;;
44734;BME280;30462;52.446;-1.930;2023-01-15T00:41:18;98290.10938;;;;
44734;BME280;30462;52.446;-1.930;2023-01-15T00:42:18;98292.10938;;;;
44734;BME280;30462;52.446;-1.930;2023-01-15T00:43:18;98292.42969;;;;
44734;BME280;30462;52.446;-1.930;2023-01-15T00:44:18;98284.33984;;;;
44734;BME280;30462;52.446;-1.930;2023-01-15T00:45:17;98294.09766;;;;
44734;BME280;30462;52.446;-1.930;2023-01-15T00:46:17;98291.45703;;;;
44734;BME280;30462;52.446;-1.930;2023-01-15T00:47:18;98299.01563;;;;
44734;BME280;30462;52.446;-1.930;2023-01-15T00:48:18;98294.70703;;;;
44734;BME280;30462;52.446;-1.930;2023-01-15T00:49:18;98300.58594;;;;
44734;BME280;30462;52.446;-1.930;2023-01-15T00:50:18;98295.84766;;;;
44734;BME280;30462;52.446;-1.930;2023-01-15T00:51:17;98300.32422;;;;
44734;BME280;30462;52.446;-1.930;2023-01-15T00:52:18;98304.76563;;;;
44734;BME280;30462;52.446;-1.930;2023-01-15T00:53:18;98302.66797;;;;
44734;BME280;30462;52.446;-1.930;2023-01-15T00:54:18;98314.81641;;;;
44734;BME280;30462;52.446;-1.930;2023-01-15T00:55:18;98311.34766;;;;
44734;BME280;30462;52.446;-1.930;2023-01-15T00:56:18;98308.43359;;;;
44734;BME280;30462;52.446;-1.930;2023-01-15T00:57:18;98310.55078;;;;
44734;BME280;30462;52.446;-1.930;2023-01-15T00:58:18;98306.76563;;;;
44734;BME280;30462;52.446;-1.930;2023-01-15T00:59:18;98313.5625;;;;
44734;BME280;30462;52.446;-1.930;2023-01-15T01:00:18;98310.05078;;;;
44734;BME280;30462;52.446;-1.930;2023-01-15T01:01:18;98312.51953;;;;
44734;BME280;30462;52.446;-1.930;2023-01-15T01:02:18;98311.46484;;;;
44734;BME280;30462;52.446;-1.930;2023-01-15T01:03:18;98314.59375;;;;
44734;BME280;30462;52.446;-1.930;2023-01-15T01:04:18;98298.71094;;;;
44734;BME280;30462;52.446;-1.930;2023-01-15T01:05:18;98301.29688;;;;
44734;BME280;30462;52.446;-1.930;2023-01-15T01:06:19;98301.89453;;;;
44734;BME280;30462;52.446;-1.930;2023-01-15T01:07:18;98309.67188;;;;
44734;BME280;30462;52.446;-1.930;2023-01-15T01:08:18;98299.64844;;;;
44734;BME280;30462;52.446;-1.930;2023-01-15T01:09:18;98289.27344;;;;
44734;BME280;30462;52.446;-1.930;2023-01-15T01:10:18;98296.30078;;;;
44734;BME280;30462;52.446;-1.930;2023-01-15T01:11:19;98302.40234;;;;
44734;BME280;30462;52.446;-1.930;2023-01-15T01:12:18;98300.66406;;;;
44734;BME280;30462;52.446;-1.930;2023-01-15T01:13:18;98300.51563;;;;
44734;BME280;30462;52.446;-1.930;2023-01-15T01:14:18;98311.59375;;;;
44734;BME280;30462;52.446;-1.930;2023-01-15T01:15:18;98310.22656;;;;
44734;BME280;30462;52.446;-1.930;2023-01-15T01:17:18;98310.71875;;;;
44734;BME280;30462;52.446;-1.930;2023-01-15T01:18:18;98307.31641;;;;
44734;BME280;30462;52.446;-1.930;2023-01-15T01:19:18;98300.99219;;;;
44734;BME280;30462;52.446;-1.930;2023-01-15T01:20:18;98318.97266;;;;
44734;BME280;30462;52.446;-1.930;2023-01-15T01:21:18;98314.47266;;;;
44734;BME280;30462;52.446;-1.930;2023-01-15T01:22:18;98301.50781;;;;
44734;BME280;30462;52.446;-1.930;2023-01-15T01:23:18;98299.75391;;;;
44734;BME280;30462;52.446;-1.930;2023-01-15T01:24:18;98321.39453;;;;
44734;BME280;30462;52.446;-1.930;2023-01-15T01:25:18;98297.69922;;;;
44734;BME280;30462;52.446;-1.930;2023-01-15T01:26:18;98296.42578;;;;
44734;BME280;30462;52.446;-1.930;2023-01-15T01:27:18;98291.83203;;;;
44734;BME280;30462;52.446;-1.930;2023-01-15T01:28:17;98285.45313;;;;
44734;BME280;30462;52.446;-1.930;2023-01-15T01:29:19;98283.76172;;;;
44734;BME280;30462;52.446;-1.930;2023-01-15T01:30:18;98286.12109;;;;
44734;BME280;30462;52.446;-1.930;2023-01-15T01:31:18;98269.68359;;;;
44734;BME280;30462;52.446;-1.930;2023-01-15T01:32:18;98268.75781;;;;
44734;BME280;30462;52.446;-1.930;2023-01-15T01:33:18;98269.33203;;;;
44734;BME280;30462;52.446;-1.930;2023-01-15T01:34:18;98266.97656;;;;
44734;BME280;30462;52.446;-1.930;2023-01-15T01:35:17;98261.84766;;;;
44734;BME280;30462;52.446;-1.930;2023-01-15T01:36:18;98268.21094;;;;
44734;BME280;30462;52.446;-1.930;2023-01-15T01:37:18;98270.39453;;;;
44734;BME280;30462;52.446;-1.930;2023-01-15T01:38:18;98271.09766;;;;
44734;BME280;30462;52.446;-1.930;2023-01-15T01:39:18;98264.19922;;;;
44734;BME280;30462;52.446;-1.930;2023-01-15T01:40:18;98260.30859;;;;
44734;BME280;30462;52.446;-1.930;2023-01-15T01:41:18;98259.67969;;;;
44734;BME280;30462;52.446;-1.930;2023-01-15T01:42:18;98252.11719;;;;
44734;BME280;30462;52.446;-1.930;2023-01-15T01:43:19;98240.46484;;;;
44734;BME280;30462;52.446;-1.930;2023-01-15T01:45:20;98233.91406;;;;
44734;BME280;30462;52.446;-1.930;2023-01-15T01:46:18;98234.01172;;;;
44734;BME280;30462;52.446;-1.930;2023-01-15T01:47:19;98229.9375;;;;
44734;BME280;30462;52.446;-1.930;2023-01-15T01:48:19;98228.97266;;;;
44734;BME280;30462;52.446;-1.930;2023-01-15T01:49:18;98224.79688;;;;
44734;BME280;30462;52.446;-1.930;2023-01-15T01:50:18;98222.20703;;;;
44734;BME280;30462;52.446;-1.930;2023-01-15T01:51:18;98213.48438;;;;
44734;BME280;30462;52.446;-1.930;2023-01-15T01:52:18;98213.73828;;;;
44734;BME280;30462;52.446;-1.930;2023-01-15T01:53:18;98219.29688;;;;
44734;BME280;30462;52.446;-1.930;2023-01-15T01:54:18;98216.875;;;;
44734;BME280;30462;52.446;-1.930;2023-01-15T01:55:18;98213.63672;;;;
44734;BME280;30462;52.446;-1.930;2023-01-15T01:56:18;98213.08984;;;;
44734;BME280;30462;52.446;-1.930;2023-01-15T01:57:18;98217.98828;;;;
44734;BME280;30462;52.446;-1.930;2023-01-15T01:58:18;98217.46484;;;;
44734;BME280;30462;52.446;-1.930;2023-01-15T01:59:18;98228.3125;;;;
44734;BME280;30462;52.446;-1.930;2023-01-15T02:00:18;98237.86719;;;;
44734;BME280;30462;52.446;-1.930;2023-01-15T02:01:18;98238.5625;;;;
44734;BME280;30462;52.446;-1.930;2023-01-15T02:02:19;98239.76563;;;;
44734;BME280;30462;52.446;-1.930;2023-01-15T02:03:19;98234.32422;;;;
44734;BME280;30462;52.446;-1.930;2023-01-15T02:04:19;98239.49219;;;;
44734;BME280;30462;52.446;-1.930;2023-01-15T02:05:20;98249.46875;;;;
44734;BME280;30462;52.446;-1.930;2023-01-15T02:06:18;98242.30859;;;;
44734;BME280;30462;52.446;-1.930;2023-01-15T02:07:17;98240.6875;;;;
44734;BME280;30462;52.446;-1.930;2023-01-15T02:08:18;98245.17969;;;;
44734;BME280;30462;52.446;-1.930;2023-01-15T02:09:17;98258.17969;;;;
44734;BME280;30462;52.446;-1.930;2023-01-15T02:10:18;98263.05859;;;;
44734;BME280;30462;52.446;-1.930;2023-01-15T02:11:19;98264.88672;;;;
44734;BME280;30462;52.446;-1.930;2023-01-15T02:12:19;98267.00781;;;;
44734;BME280;30462;52.446;-1.930;2023-01-15T02:13:20;98273.70703;;;;
44734;BME280;30462;52.446;-1.930;2023-01-15T02:14:20;98256.16797;;;;
44734;BME280;30462;52.446;-1.930;2023-01-15T02:15:21;98262.96484;;;;
44734;BME280;30462;52.446;-1.930;2023-01-15T02:16:19;98280.40625;;;;
44734;BME280;30462;52.446;-1.930;2023-01-15T02:17:19;98287.46484;;;;
44734;BME280;30462;52.446;-1.930;2023-01-15T02:18:21;98276.08984;;;;
44734;BME280;30462;52.446;-1.930;2023-01-15T02:19:21;98274.90625;;;;
44734;BME280;30462;52.446;-1.930;2023-01-15T02:20:21;98283.91406;;;;
44734;BME280;30462;52.446;-1.930;2023-01-15T02:21:20;98270.14844;;;;
44734;BME280;30462;52.446;-1.930;2023-01-15T02:22:23;98281.48438;;;;
44734;BME280;30462;52.446;-1.930;2023-01-15T02:23:23;98275.31641;;;;
44734;BME280;30462;52.446;-1.930;2023-01-15T02:25:18;98278.60938;;;;
44734;BME280;30462;52.446;-1.930;2023-01-15T02:27:19;98277.47656;;;;
44734;BME280;30462;52.446;-1.930;2023-01-15T02:28:18;98283.73438;;;;
44734;BME280;30462;52.446;-1.930;2023-01-15T02:29:19;98280.13281;;;;
44734;BME280;30462;52.446;-1.930;2023-01-15T02:30:19;98274.30859;;;;
44734;BME280;30462;52.446;-1.930;2023-01-15T02:31:19;98284.88281;;;;
44734;BME280;30462;52.446;-1.930;2023-01-15T02:32:20;98268.26172;;;;
44734;BME280;30462;52.446;-1.930;2023-01-15T02:33:19;98274.95703;;;;
44734;BME280;30462;52.446;-1.930;2023-01-15T02:34:21;98270.38672;;;;
44734;BME280;30462;52.446;-1.930;2023-01-15T02:35:19;98269.6875;;;;
44734;BME280;30462;52.446;-1.930;2023-01-15T02:36:18;98269.03516;;;;
44734;BME280;30462;52.446;-1.930;2023-01-15T02:37:19;98269.61719;;;;
44734;BME280;30462;52.446;-1.930;2023-01-15T02:38:19;98263.19141;;;;
44734;BME280;30462;52.446;-1.930;2023-01-15T02:39:18;98261.58984;;;;
44734;BME280;30462;52.446;-1.930;2023-01-15T02:40:17;98260.94531;;;;
44734;BME280;30462;52.446;-1.930;2023-01-15T02:41:19;98254.25781;;;;
44734;BME280;30462;52.446;-1.930;2023-01-15T02:42:18;98259.43359;;;;
44734;BME280;30462;52.446;-1.930;2023-01-15T02:43:18;98257.88281;;;;
44734;BME280;30462;52.446;-1.930;2023-01-15T02:44:19;98254.69531;;;;
44734;BME280;30462;52.446;-1.930;2023-01-15T02:45:19;98255.72656;;;;
44734;BME280;30462;52.446;-1.930;2023-01-15T02:46:18;98262.89453;;;;
44734;BME280;30462;52.446;-1.930;2023-01-15T02:47:19;98268.86719;;;;
44734;BME280;30462;52.446;-1.930;2023-01-15T02:48:19;98275.88281;;;;
44734;BME280;30462;52.446;-1.930;2023-01-15T02:49:19;98259.03516;;;;
44734;BME280;30462;52.446;-1.930;2023-01-15T02:50:18;98271.89453;;;;
44734;BME280;30462;52.446;-1.930;2023-01-15T02:51:19;98279.34766;;;;
44734;BME280;30462;52.446;-1.930;2023-01-15T02:52:20;98271.46875;;;;
44734;BME280;30462;52.446;-1.930;2023-01-15T02:53:19;98274.53516;;;;
44734;BME280;30462;52.446;-1.930;2023-01-15T02:54:18;98272.92188;;;;
44734;BME280;30462;52.446;-1.930;2023-01-15T02:55:19;98274.32813;;;;
44734;BME280;30462;52.446;-1.930;2023-01-15T02:56:19;98271.19922;;;;
44734;BME280;30462;52.446;-1.930;2023-01-15T02:57:17;98263.41016;;;;
44734;BME280;30462;52.446;-1.930;2023-01-15T02:58:19;98267.45313;;;;
44734;BME280;30462;52.446;-1.930;2023-01-15T02:59:19;98260.97266;;;;
44734;BME280;30462;52.446;-1.930;2023-01-15T03:00:18;98258.91406;;;;
44734;BME280;30462;52.446;-1.930;2023-01-15T03:01:19;98257.46875;;;;
44734;BME280;30462;52.446;-1.930;2023-01-15T03:02:18;98243.57813;;;;
44734;BME280;30462;52.446;-1.930;2023-01-15T03:03:20;98251.625;;;;
44734;BME280;30462;52.446;-1.930;2023-01-15T03:04:21;98245.16406;;;;
44734;BME280;30462;52.446;-1.930;2023-01-15T03:05:19;98236.74219;;;;
44734;BME280;30462;52.446;-1.930;2023-01-15T03:06:18;98238.1875;;;;
44734;BME280;30462;52.446;-1.930;2023-01-15T03:07:20;98230.69531;;;;
44734;BME280;30462;52.446;-1.930;2023-01-15T03:08:18;98233.01563;;;;
44734;BME280;30462;52.446;-1.930;2023-01-15T03:09:18;98226.875;;;;
44734;BME280;30462;52.446;-1.930;2023-01-15T03:10:18;98232.60547;;;;
44734;BME280;30462;52.446;-1.930;2023-01-15T03:11:18;98229.91016;;;;
44734;BME280;30462;52.446;-1.930;2023-01-15T03:12:19;98234.97656;;;;
44734;BME280;30462;52.446;-1.930;2023-01-15T03:13:20;98226.40625;;;;
44734;BME280;30462;52.446;-1.930;2023-01-15T03:14:20;98215.64453;;;;
44734;BME280;30462;52.446;-1.930;2023-01-15T03:15:18;98215.72266;;;;
44734;BME280;30462;52.446;-1.930;2023-01-15T03:16:24;98219.27734;;;;
44734;BME280;30462;52.446;-1.930;2023-01-15T03:17:22;98208.92578;;;;
44734;BME280;30462;52.446;-1.930;2023-01-15T03:18:18;98212.51953;;;;
44734;BME280;30462;52.446;-1.930;2023-01-15T03:19:21;98208.59766;;;;
44734;BME280;30462;52.446;-1.930;2023-01-15T03:20:19;98215.71484;;;;
44734;BME280;30462;52.446;-1.930;2023-01-15T03:21:19;98200.125;;;;
44734;BME280;30462;52.446;-1.930;2023-01-15T03:22:19;98203.41016;;;;
44734;BME280;30462;52.446;-1.930;2023-01-15T03:23:18;98213.16406;;;;
44734;BME280;30462;52.446;-1.930;2023-01-15T03:24:18;98209.23828;;;;
44734;BME280;30462;52.446;-1.930;2023-01-15T03:25:18;98207.76953;;;;
44734;BME280;30462;52.446;-1.930;2023-01-15T03:26:18;98192.16406;;;;
44734;BME280;30462;52.446;-1.930;2023-01-15T03:27:18;98206.61719;;;;
44734;BME280;30462;52.446;-1.930;2023-01-15T03:28:19;98202.94922;;;;
44734;BME280;30462;52.446;-1.930;2023-01-15T03:29:18;98198.53125;;;;
44734;BME280;30462;52.446;-1.930;2023-01-15T03:30:18;98202.10156;;;;
44734;BME280;30462;52.446;-1.930;2023-01-15T03:31:17;98203.83594;;;;
44734;BME280;30462;52.446;-1.930;2023-01-15T03:32:18;98206.41797;;;;
44734;BME280;30462;52.446;-1.930;2023-01-15T03:33:18;98201.14453;;;;
44734;BME280;30462;52.446;-1.930;2023-01-15T03:34:19;98201.18359;;;;
44734;BME280;30462;52.446;-1.930;2023-01-15T03:36:18;98201.35156;;;;
44734;BME280;30462;52.446;-1.930;2023-01-15T03:37:18;98199.57031;;;;
44734;BME280;30462;52.446;-1.930;2023-01-15T03:38:18;98198.00781;;;;
44734;BME280;30462;52.446;-1.930;2023-01-15T03:39:18;98195.09766;;;;
44734;BME280;30462;52.446;-1.930;2023-01-15T03:40:17;98187.96875;;;;
44734;BME280;30462;52.446;-1.930;2023-01-15T03:41:19;98185.32031;;;;
44734;BME280;30462;52.446;-1.930;2023-01-15T03:42:22;98187.96484;;;;
44734;BME280;30462;52.446;-1.930;2023-01-15T03:43:18;98171.29297;;;;
44734;BME280;30462;52.446;-1.930;2023-01-15T03:44:22;98174.75781;;;;
44734;BME280;30462;52.446;-1.930;2023-01-15T03:45:19;98170.32031;;;;
44734;BME280;30462;52.446;-1.930;2023-01-15T03:46:23;98169.19922;;;;
44734;BME280;30462;52.446;-1.930;2023-01-15T03:47:21;98163.30078;;;;
44734;BME280;30462;52.446;-1.930;2023-01-15T03:48:19;98159.35938;;;;
44734;BME280;30462;52.446;-1.930;2023-01-15T03:49:25;98159.35938;;;;
44734;BME280;30462;52.446;-1.930;2023-01-15T03:50:21;98148.40625;;;;
44734;BME280;30462;52.446;-1.930;2023-01-15T03:51:19;98157.375;;;;
44734;BME280;30462;52.446;-1.930;2023-01-15T03:52:19;98157.20703;;;;
44734;BME280;30462;52.446;-1.930;2023-01-15T03:53:19;98160.29297;;;;
44734;BME280;30462;52.446;-1.930;2023-01-15T03:54:20;98150.35547;;;;
44734;BME280;30462;52.446;-1.930;2023-01-15T03:55:18;98157.25781;;;;
44734;BME280;30462;52.446;-1.930;2023-01-15T03:56:20;98154.19531;;;;
44734;BME280;30462;52.446;-1.930;2023-01-15T03:57:22;98160.9375;;;;
44734;BME280;30462;52.446;-1.930;2023-01-15T03:58:19;98153.48438;;;;
44734;BME280;30462;52.446;-1.930;2023-01-15T03:59:20;98145.83203;;;;
44734;BME280;30462;52.446;-1.930;2023-01-15T04:00:20;98147.44922;;;;
44734;BME280;30462;52.446;-1.930;2023-01-15T04:01:18;98155.04297;;;;
44734;BME280;30462;52.446;-1.930;2023-01-15T04:02:18;98155.04297;;;;
44734;BME280;30462;52.446;-1.930;2023-01-15T04:03:18;98137.88281;;;;
44734;BME280;30462;52.446;-1.930;2023-01-15T04:04:18;98138.64453;;;;
44734;BME280;30462;52.446;-1.930;2023-01-15T04:05:17;98143.39453;;;;
44734;BME280;30462;52.446;-1.930;2023-01-15T04:06:18;98149.23047;;;;
44734;BME280;30462;52.446;-1.930;2023-01-15T04:07:18;98140.04688;;;;
44734;BME280;30462;52.446;-1.930;2023-01-15T04:08:18;98133.73047;;;;
44734;BME280;30462;52.446;-1.930;2023-01-15T04:09:17;98137.33984;;;;
44734;BME280;30462;52.446;-1.930;2023-01-15T04:10:18;98137.78125;;;;
44734;BME280;30462;52.446;-1.930;2023-01-15T04:11:21;98135.83594;;;;
44734;BME280;30462;52.446;-1.930;2023-01-15T04:12:18;98132.92188;;;;
44734;BME280;30462;52.446;-1.930;2023-01-15T04:13:18;98136.37109;;;;
44734;BME280;30462;52.446;-1.930;2023-01-15T04:14:18;98133.74219;;;;
44734;BME280;30462;52.446;-1.930;2023-01-15T04:15:18;98134.22266;;;;
44734;BME280;30462;52.446;-1.930;2023-01-15T04:16:20;98125.47656;;;;
44734;BME280;30462;52.446;-1.930;2023-01-15T04:17:18;98127.53125;;;;
44734;BME280;30462;52.446;-1.930;2023-01-15T04:18:18;98124.92969;;;;
44734;BME280;30462;52.446;-1.930;2023-01-15T04:19:18;98125.3125;;;;
44734;BME280;30462;52.446;-1.930;2023-01-15T04:20:18;98112.69531;;;;
44734;BME280;30462;52.446;-1.930;2023-01-15T04:21:18;98119.91016;;;;
44734;BME280;30462;52.446;-1.930;2023-01-15T04:22:18;98126.44531;;;;
44734;BME280;30462;52.446;-1.930;2023-01-15T04:23:18;98113.87109;;;;
44734;BME280;30462;52.446;-1.930;2023-01-15T04:24:18;98124.01563;;;;
44734;BME280;30462;52.446;-1.930;2023-01-15T04:25:18;98109.07031;;;;
44734;BME280;30462;52.446;-1.930;2023-01-15T04:26:18;98110.42578;;;;
44734;BME280;30462;52.446;-1.930;2023-01-15T04:27:18;98117.87109;;;;
44734;BME280;30462;52.446;-1.930;2023-01-15T04:28:18;98105.41406;;;;
44734;BME280;30462;52.446;-1.930;2023-01-15T04:29:18;98111.01172;;;;
44734;BME280;30462;52.446;-1.930;2023-01-15T04:30:18;98101.46094;;;;
44734;BME280;30462;52.446;-1.930;2023-01-15T04:31:17;98104.64844;;;;
44734;BME280;30462;52.446;-1.930;2023-01-15T04:32:17;98116.78125;;;;
44734;BME280;30462;52.446;-1.930;2023-01-15T04:33:17;98107.72656;;;;
44734;BME280;30462;52.446;-1.930;2023-01-15T04:34:18;98108.25391;;;;
44734;BME280;30462;52.446;-1.930;2023-01-15T04:35:18;98108.00391;;;;
44734;BME280;30462;52.446;-1.930;2023-01-15T04:36:18;98114.46094;;;;
44734;BME280;30462;52.446;-1.930;2023-01-15T04:37:18;98106.60156;;;;
44734;BME280;30462;52.446;-1.930;2023-01-15T04:38:18;98100.76953;;;;
44734;BME280;30462;52.446;-1.930;2023-01-15T04:39:18;98105.25;;;;
44734;BME280;30462;52.446;-1.930;2023-01-15T04:40:18;98097.52734;;;;
44734;BME280;30462;52.446;-1.930;2023-01-15T04:41:18;98098.34375;;;;
44734;BME280;30462;52.446;-1.930;2023-01-15T04:42:18;98092.08594;;;;
44734;BME280;30462;52.446;-1.930;2023-01-15T04:43:18;98098.21875;;;;
44734;BME280;30462;52.446;-1.930;2023-01-15T04:44:18;98096.23828;;;;
44734;BME280;30462;52.446;-1.930;2023-01-15T04:45:17;98079.17578;;;;
44734;BME280;30462;52.446;-1.930;2023-01-15T04:46:19;98087.80859;;;;
44734;BME280;30462;52.446;-1.930;2023-01-15T04:47:18;98075.83203;;;;
44734;BME280;30462;52.446;-1.930;2023-01-15T04:48:18;98070.66016;;;;
44734;BME280;30462;52.446;-1.930;2023-01-15T04:49:18;98077.08594;;;;
44734;BME280;30462;52.446;-1.930;2023-01-15T04:50:18;98080.04688;;;;
44734;BME280;30462;52.446;-1.930;2023-01-15T04:51:18;98074.04297;;;;
44734;BME280;30462;52.446;-1.930;2023-01-15T04:52:18;98084.67578;;;;
44734;BME280;30462;52.446;-1.930;2023-01-15T04:53:17;98076.16406;;;;
44734;BME280;30462;52.446;-1.930;2023-01-15T04:54:18;98076.05469;;;;
44734;BME280;30462;52.446;-1.930;2023-01-15T04:55:18;98080.69922;;;;
44734;BME280;30462;52.446;-1.930;2023-01-15T04:56:18;98070.0625;;;;
44734;BME280;30462;52.446;-1.930;2023-01-15T04:57:18;98078.96875;;;;
44734;BME280;30462;52.446;-1.930;2023-01-15T04:58:18;98066.05859;;;;
44734;BME280;30462;52.446;-1.930;2023-01-15T04:59:19;98072.32813;;;;
44734;BME280;30462;52.446;-1.930;2023-01-15T05:00:18;98070.32031;;;;
44734;BME280;30462;52.446;-1.930;2023-01-15T05:01:18;98063.58203;;;;
44734;BME280;30462;52.446;-1.930;2023-01-15T05:02:18;98062.16797;;;;
44734;BME280;30462;52.446;-1.930;2023-01-15T05:03:18;98068.91406;;;;
44734;BME280;30462;52.446;-1.930;2023-01-15T05:04:18;98066.80469;;;;
44734;BME280;30462;52.446;-1.930;2023-01-15T05:05:18;98069.76953;;;;
44734;BME280;30462;52.446;-1.930;2023-01-15T05:06:18;98068.75;;;;
44734;BME280;30462;52.446;-1.930;2023-01-15T05:07:18;98072.04297;;;;
44734;BME280;30462;52.446;-1.930;2023-01-15T05:08:18;98070.25391;;;;
44734;BME280;30462;52.446;-1.930;2023-01-15T05:09:18;98059.12109;;;;
44734;BME280;30462;52.446;-1.930;2023-01-15T05:10:18;98066.14063;;;;
44734;BME280;30462;52.446;-1.930;2023-01-15T05:11:17;98055.39453;;;;
44734;BME280;30462;52.446;-1.930;2023-01-15T05:12:17;98060.58203;;;;
44734;BME280;30462;52.446;-1.930;2023-01-15T05:13:18;98058.84766;;;;
44734;BME280;30462;52.446;-1.930;2023-01-15T05:14:18;98057.49219;;;;
44734;BME280;30462;52.446;-1.930;2023-01-15T05:15:18;98062.51953;;;;
44734;BME280;30462;52.446;-1.930;2023-01-15T05:16:19;98065.32813;;;;
44734;BME280;30462;52.446;-1.930;2023-01-15T05:17:18;98053.82422;;;;
44734;BME280;30462;52.446;-1.930;2023-01-15T05:18:18;98054.26172;;;;
44734;BME280;30462;52.446;-1.930;2023-01-15T05:19:18;98054.3125;;;;
44734;BME280;30462;52.446;-1.930;2023-01-15T05:20:18;98057.48438;;;;
44734;BME280;30462;52.446;-1.930;2023-01-15T05:21:19;98053.9375;;;;
44734;BME280;30462;52.446;-1.930;2023-01-15T05:22:18;98053.80078;;;;
44734;BME280;30462;52.446;-1.930;2023-01-15T05:23:18;98060.55469;;;;
44734;BME280;30462;52.446;-1.930;2023-01-15T05:24:18;98059.09375;;;;
44734;BME280;30462;52.446;-1.930;2023-01-15T05:25:18;98053.33984;;;;
44734;BME280;30462;52.446;-1.930;2023-01-15T05:26:18;98059.25781;;;;
44734;BME280;30462;52.446;-1.930;2023-01-15T05:27:17;98047.32031;;;;
44734;BME280;30462;52.446;-1.930;2023-01-15T05:28:18;98051.43359;;;;
44734;BME280;30462;52.446;-1.930;2023-01-15T05:29:18;98053.42969;;;;
44734;BME280;30462;52.446;-1.930;2023-01-15T05:30:18;98048.57031;;;;
44734;BME280;30462;52.446;-1.930;2023-01-15T05:31:18;98048.98828;;;;
44734;BME280;30462;52.446;-1.930;2023-01-15T05:32:18;98033.44141;;;;
44734;BME280;30462;52.446;-1.930;2023-01-15T05:33:18;98055.53906;;;;
44734;BME280;30462;52.446;-1.930;2023-01-15T05:34:17;98041.66406;;;;
44734;BME280;30462;52.446;-1.930;2023-01-15T05:35:18;98050.67188;;;;
44734;BME280;30462;52.446;-1.930;2023-01-15T05:36:20;98057.08594;;;;
44734;BME280;30462;52.446;-1.930;2023-01-15T05:37:18;98064.92188;;;;
44734;BME280;30462;52.446;-1.930;2023-01-15T05:38:18;98060.91016;;;;
44734;BME280;30462;52.446;-1.930;2023-01-15T05:39:18;98068.85547;;;;
44734;BME280;30462;52.446;-1.930;2023-01-15T05:40:18;98048.55078;;;;
44734;BME280;30462;52.446;-1.930;2023-01-15T05:41:21;98049.78125;;;;
44734;BME280;30462;52.446;-1.930;2023-01-15T05:42:18;98059.21484;;;;
44734;BME280;30462;52.446;-1.930;2023-01-15T05:43:18;98060.48828;;;;
44734;BME280;30462;52.446;-1.930;2023-01-15T05:44:20;98072.52734;;;;
44734;BME280;30462;52.446;-1.930;2023-01-15T05:45:17;98062.11328;;;;
44734;BME280;30462;52.446;-1.930;2023-01-15T05:46:18;98068.85547;;;;
44734;BME280;30462;52.446;-1.930;2023-01-15T05:47:18;98053.10547;;;;
44734;BME280;30462;52.446;-1.930;2023-01-15T05:48:18;98054.73047;;;;
44734;BME280;30462;52.446;-1.930;2023-01-15T05:49:19;98058.08203;;;;
44734;BME280;30462;52.446;-1.930;2023-01-15T05:50:18;98052.60547;;;;